sensor_id;sensor_type;location;lat;lon;timestamp;temperature;humidity
1766;DHT22;880;52.452;8.656;2023-02-28T00:01:32;0.90;99.90
1766;DHT22;880;52.452;8.656;2023-02-28T00:03:59;0.80;99.90
1766;DHT22;880;52.452;8.656;2023-02-28T00:06:26;0.80;99.90
1766;DHT22;880;52.452;8.656;2023-02-28T00:08:53;0.80;99.90
1766;DHT22;880;52.452;8.656;2023-02-28T00:11:20;0.80;99.90
1766;DHT22;880;52.452;8.656;2023-02-28T00:13:48;0.80;99.90
1766;DHT22;880;52.452;8.656;2023-02-28T00:16:20;0.80;99.90
1766;DHT22;880;52.452;8.656;2023-02-28T00:18:48;0.80;99.90
1766;DHT22;880;52.452;8.656;2023-02-28T00:21:17;0.80;99.90
1766;DHT22;880;52.452;8.656;2023-02-28T00:23:44;0.80;99.90
1766;DHT22;880;52.452;8.656;2023-02-28T00:26:11;0.80;99.90
1766;DHT22;880;52.452;8.656;2023-02-28T00:28:41;0.80;99.90
1766;DHT22;880;52.452;8.656;2023-02-28T00:31:08;0.80;99.90
1766;DHT22;880;52.452;8.656;2023-02-28T00:33:36;0.70;99.90
1766;DHT22;880;52.452;8.656;2023-02-28T00:36:08;0.80;99.90
1766;DHT22;880;52.452;8.656;2023-02-28T00:38:37;0.80;99.90
1766;DHT22;880;52.452;8.656;2023-02-28T00:41:05;0.70;99.90
1766;DHT22;880;52.452;8.656;2023-02-28T00:43:35;0.70;99.90
1766;DHT22;880;52.452;8.656;2023-02-28T00:46:03;0.70;99.90
1766;DHT22;880;52.452;8.656;2023-02-28T00:48:31;0.70;99.90
1766;DHT22;880;52.452;8.656;2023-02-28T00:50:58;0.70;99.90
1766;DHT22;880;52.452;8.656;2023-02-28T00:53:25;0.70;99.90
1766;DHT22;880;52.452;8.656;2023-02-28T00:55:52;0.60;99.90
1766;DHT22;880;52.452;8.656;2023-02-28T00:58:19;0.60;99.90
1766;DHT22;880;52.452;8.656;2023-02-28T01:00:46;0.60;99.90
1766;DHT22;880;52.452;8.656;2023-02-28T01:03:19;0.60;99.90
1766;DHT22;880;52.452;8.656;2023-02-28T01:05:47;0.50;99.90
1766;DHT22;880;52.452;8.656;2023-02-28T01:08:16;0.40;99.90
1766;DHT22;880;52.452;8.656;2023-02-28T01:10:43;0.50;99.90
1766;DHT22;880;52.452;8.656;2023-02-28T01:13:10;0.40;99.90
1766;DHT22;880;52.452;8.656;2023-02-28T01:15:42;0.40;99.90
1766;DHT22;880;52.452;8.656;2023-02-28T01:18:12;0.20;99.90
1766;DHT22;880;52.452;8.656;2023-02-28T01:20:39;0.10;99.90
1766;DHT22;880;52.452;8.656;2023-02-28T01:23:07;0.10;99.90
1766;DHT22;880;52.452;8.656;2023-02-28T01:25:35;0.00;99.90
1766;DHT22;880;52.452;8.656;2023-02-28T01:28:04;0.00;99.90
1766;DHT22;880;52.452;8.656;2023-02-28T01:30:33;-0.10;99.90
1766;DHT22;880;52.452;8.656;2023-02-28T01:33:00;-0.20;99.90
1766;DHT22;880;52.452;8.656;2023-02-28T01:35:27;-0.20;99.90
1766;DHT22;880;52.452;8.656;2023-02-28T01:37:54;-0.10;99.90
1766;DHT22;880;52.452;8.656;2023-02-28T01:40:26;-0.10;99.90
1766;DHT22;880;52.452;8.656;2023-02-28T01:42:54;-0.20;99.90
1766;DHT22;880;52.452;8.656;2023-02-28T01:45:30;-0.20;99.90
1766;DHT22;880;52.452;8.656;2023-02-28T01:48:04;-0.20;99.90
1766;DHT22;880;52.452;8.656;2023-02-28T01:50:36;-0.10;99.90
1766;DHT22;880;52.452;8.656;2023-02-28T01:53:08;-0.10;99.90
1766;DHT22;880;52.452;8.656;2023-02-28T01:55:41;-0.30;99.90
1766;DHT22;880;52.452;8.656;2023-02-28T01:58:09;-0.30;99.90
1766;DHT22;880;52.452;8.656;2023-02-28T02:00:36;-0.30;99.90
1766;DHT22;880;52.452;8.656;2023-02-28T02:03:08;-0.40;99.90
1766;DHT22;880;52.452;8.656;2023-02-28T02:05:39;-0.40;99.90
1766;DHT22;880;52.452;8.656;2023-02-28T02:08:12;-0.40;99.90
1766;DHT22;880;52.452;8.656;2023-02-28T02:10:48;-0.50;99.90
1766;DHT22;880;52.452;8.656;2023-02-28T02:16:33;-0.40;99.90
1766;DHT22;880;52.452;8.656;2023-02-28T02:25:20;-0.30;99.90
1766;DHT22;880;52.452;8.656;2023-02-28T02:28:35;-0.30;99.90
1766;DHT22;880;52.452;8.656;2023-02-28T02:34:54;-0.40;99.90
1766;DHT22;880;52.452;8.656;2023-02-28T02:37:47;-0.50;99.90
1766;DHT22;880;52.452;8.656;2023-02-28T02:40:20;-0.50;99.90
1766;DHT22;880;52.452;8.656;2023-02-28T02:43:13;-0.50;99.90
1766;DHT22;880;52.452;8.656;2023-02-28T02:45:54;-0.60;99.90
1766;DHT22;880;52.452;8.656;2023-02-28T02:48:26;-0.70;99.90
1766;DHT22;880;52.452;8.656;2023-02-28T02:50:59;-0.70;99.90
1766;DHT22;880;52.452;8.656;2023-02-28T02:53:32;-0.60;99.90
1766;DHT22;880;52.452;8.656;2023-02-28T02:56:02;-0.60;99.90
1766;DHT22;880;52.452;8.656;2023-02-28T02:58:35;-0.60;99.90
1766;DHT22;880;52.452;8.656;2023-02-28T03:01:14;-0.70;99.90
1766;DHT22;880;52.452;8.656;2023-02-28T03:03:45;-0.70;99.90
1766;DHT22;880;52.452;8.656;2023-02-28T03:06:14;-0.80;99.90
1766;DHT22;880;52.452;8.656;2023-02-28T03:08:41;-0.80;99.90
1766;DHT22;880;52.452;8.656;2023-02-28T03:11:13;-0.80;99.90
1766;DHT22;880;52.452;8.656;2023-02-28T03:13:52;-0.80;99.90
1766;DHT22;880;52.452;8.656;2023-02-28T03:25:16;-0.80;99.90
1766;DHT22;880;52.452;8.656;2023-02-28T03:30:47;-0.80;99.90
1766;DHT22;880;52.452;8.656;2023-02-28T03:33:24;-0.80;99.90
1766;DHT22;880;52.452;8.656;2023-02-28T03:35:58;-0.90;99.90
1766;DHT22;880;52.452;8.656;2023-02-28T03:38:38;-0.90;99.90
1766;DHT22;880;52.452;8.656;2023-02-28T03:41:22;-0.90;99.90
1766;DHT22;880;52.452;8.656;2023-02-28T03:43:56;-1.00;99.90
1766;DHT22;880;52.452;8.656;2023-02-28T03:46:29;-1.00;99.90
1766;DHT22;880;52.452;8.656;2023-02-28T03:52:00;-1.00;99.90
1766;DHT22;880;52.452;8.656;2023-02-28T03:54:32;-1.00;99.90
1766;DHT22;880;52.452;8.656;2023-02-28T03:57:07;-1.10;99.90
1766;DHT22;880;52.452;8.656;2023-02-28T03:59:54;-1.00;99.90
1766;DHT22;880;52.452;8.656;2023-02-28T04:02:24;-1.00;99.90
1766;DHT22;880;52.452;8.656;2023-02-28T04:04:51;-1.10;99.90
1766;DHT22;880;52.452;8.656;2023-02-28T04:07:18;-1.10;99.90
1766;DHT22;880;52.452;8.656;2023-02-28T04:09:45;-1.10;99.90
1766;DHT22;880;52.452;8.656;2023-02-28T04:12:12;-1.20;99.90
1766;DHT22;880;52.452;8.656;2023-02-28T04:14:39;-1.10;99.90
1766;DHT22;880;52.452;8.656;2023-02-28T04:17:06;-1.20;99.90
1766;DHT22;880;52.452;8.656;2023-02-28T04:19:33;-1.20;99.90
1766;DHT22;880;52.452;8.656;2023-02-28T04:22:00;-1.20;99.90
1766;DHT22;880;52.452;8.656;2023-02-28T04:24:28;-1.20;99.90
1766;DHT22;880;52.452;8.656;2023-02-28T04:26:56;-1.20;99.90
1766;DHT22;880;52.452;8.656;2023-02-28T04:29:29;-1.30;99.90
1766;DHT22;880;52.452;8.656;2023-02-28T04:32:02;-1.30;99.90
1766;DHT22;880;52.452;8.656;2023-02-28T04:34:31;-1.30;99.90
1766;DHT22;880;52.452;8.656;2023-02-28T04:36:58;-1.30;99.90
1766;DHT22;880;52.452;8.656;2023-02-28T04:39:43;-1.40;99.90
1766;DHT22;880;52.452;8.656;2023-02-28T04:42:11;-1.30;99.90
1766;DHT22;880;52.452;8.656;2023-02-28T04:44:38;-1.40;99.90
1766;DHT22;880;52.452;8.656;2023-02-28T04:47:06;-1.40;99.90
1766;DHT22;880;52.452;8.656;2023-02-28T04:49:32;-1.40;99.90
1766;DHT22;880;52.452;8.656;2023-02-28T04:51:59;-1.50;99.90
1766;DHT22;880;52.452;8.656;2023-02-28T04:54:26;-1.50;99.90
1766;DHT22;880;52.452;8.656;2023-02-28T04:56:54;-1.50;99.90
1766;DHT22;880;52.452;8.656;2023-02-28T04:59:21;-1.50;99.90
1766;DHT22;880;52.452;8.656;2023-02-28T05:01:49;-1.50;99.90
1766;DHT22;880;52.452;8.656;2023-02-28T05:04:16;-1.50;99.90
1766;DHT22;880;52.452;8.656;2023-02-28T05:06:43;-1.50;99.90
1766;DHT22;880;52.452;8.656;2023-02-28T05:09:10;-1.60;99.90
1766;DHT22;880;52.452;8.656;2023-02-28T05:11:41;-1.60;99.90
1766;DHT22;880;52.452;8.656;2023-02-28T05:14:13;-1.60;99.90
1766;DHT22;880;52.452;8.656;2023-02-28T05:16:40;-1.60;99.90
1766;DHT22;880;52.452;8.656;2023-02-28T05:19:07;-1.60;99.90
1766;DHT22;880;52.452;8.656;2023-02-28T05:21:40;-1.60;99.90
1766;DHT22;880;52.452;8.656;2023-02-28T05:24:12;-1.60;99.90
1766;DHT22;880;52.452;8.656;2023-02-28T05:26:42;-1.70;99.90
1766;DHT22;880;52.452;8.656;2023-02-28T05:29:10;-1.70;99.90
1766;DHT22;880;52.452;8.656;2023-02-28T05:31:38;-1.70;99.90
1766;DHT22;880;52.452;8.656;2023-02-28T05:34:05;-1.70;99.90
1766;DHT22;880;52.452;8.656;2023-02-28T05:36:32;-1.70;99.90
1766;DHT22;880;52.452;8.656;2023-02-28T05:38:59;-1.80;99.90
1766;DHT22;880;52.452;8.656;2023-02-28T05:41:27;-1.80;99.90
1766;DHT22;880;52.452;8.656;2023-02-28T05:43:54;-1.80;99.90
1766;DHT22;880;52.452;8.656;2023-02-28T05:46:21;-1.80;99.90
1766;DHT22;880;52.452;8.656;2023-02-28T05:48:49;-1.80;99.90
1766;DHT22;880;52.452;8.656;2023-02-28T05:51:16;-1.80;99.90
1766;DHT22;880;52.452;8.656;2023-02-28T05:53:44;-1.90;99.90
1766;DHT22;880;52.452;8.656;2023-02-28T05:56:11;-1.90;99.90
1766;DHT22;880;52.452;8.656;2023-02-28T05:58:38;-1.90;99.90
1766;DHT22;880;52.452;8.656;2023-02-28T06:04:00;-2.00;99.90
1766;DHT22;880;52.452;8.656;2023-02-28T06:06:28;-2.00;99.90
1766;DHT22;880;52.452;8.656;2023-02-28T06:08:56;-2.00;99.90
1766;DHT22;880;52.452;8.656;2023-02-28T06:11:23;-2.00;99.90
1766;DHT22;880;52.452;8.656;2023-02-28T06:13:56;-2.10;99.90
1766;DHT22;880;52.452;8.656;2023-02-28T06:16:24;-2.10;99.90
1766;DHT22;880;52.452;8.656;2023-02-28T06:18:52;-2.10;99.90
1766;DHT22;880;52.452;8.656;2023-02-28T06:21:19;-2.10;99.90
1766;DHT22;880;52.452;8.656;2023-02-28T06:23:46;-2.10;99.90
1766;DHT22;880;52.452;8.656;2023-02-28T06:26:13;-2.20;99.90
1766;DHT22;880;52.452;8.656;2023-02-28T06:28:40;-2.20;99.90
1766;DHT22;880;52.452;8.656;2023-02-28T06:31:09;-2.30;99.90
1766;DHT22;880;52.452;8.656;2023-02-28T06:33:38;-2.30;99.90
1766;DHT22;880;52.452;8.656;2023-02-28T06:36:07;-2.30;99.90
1766;DHT22;880;52.452;8.656;2023-02-28T06:38:35;-2.30;99.90
1766;DHT22;880;52.452;8.656;2023-02-28T06:41:02;-2.20;99.90
1766;DHT22;880;52.452;8.656;2023-02-28T06:43:31;-2.30;99.90
1766;DHT22;880;52.452;8.656;2023-02-28T06:46:05;-2.20;99.90
1766;DHT22;880;52.452;8.656;2023-02-28T06:48:33;-2.10;99.90
1766;DHT22;880;52.452;8.656;2023-02-28T06:51:14;-1.90;99.90
1766;DHT22;880;52.452;8.656;2023-02-28T06:53:46;-1.70;99.90
1766;DHT22;880;52.452;8.656;2023-02-28T06:56:15;-1.50;99.90
1766;DHT22;880;52.452;8.656;2023-02-28T06:58:47;-0.40;99.90
1766;DHT22;880;52.452;8.656;2023-02-28T07:01:15;1.20;99.90
1766;DHT22;880;52.452;8.656;2023-02-28T07:03:42;2.50;99.90
1766;DHT22;880;52.452;8.656;2023-02-28T07:06:10;3.40;99.90
1766;DHT22;880;52.452;8.656;2023-02-28T07:08:37;3.30;99.90
1766;DHT22;880;52.452;8.656;2023-02-28T07:11:06;2.80;99.90
1766;DHT22;880;52.452;8.656;2023-02-28T07:13:33;2.20;99.90
1766;DHT22;880;52.452;8.656;2023-02-28T07:16:03;1.60;99.90
1766;DHT22;880;52.452;8.656;2023-02-28T07:18:32;1.10;99.90
1766;DHT22;880;52.452;8.656;2023-02-28T07:21:02;0.90;99.90
1766;DHT22;880;52.452;8.656;2023-02-28T07:23:30;0.70;99.90
1766;DHT22;880;52.452;8.656;2023-02-28T07:25:57;0.60;99.90
1766;DHT22;880;52.452;8.656;2023-02-28T07:28:24;0.50;99.90
1766;DHT22;880;52.452;8.656;2023-02-28T07:30:51;0.40;99.90
1766;DHT22;880;52.452;8.656;2023-02-28T07:33:18;0.30;99.90
1766;DHT22;880;52.452;8.656;2023-02-28T07:35:45;0.20;99.90
1766;DHT22;880;52.452;8.656;2023-02-28T07:38:13;0.10;99.90
1766;DHT22;880;52.452;8.656;2023-02-28T07:40:40;0.00;99.90
1766;DHT22;880;52.452;8.656;2023-02-28T07:43:07;0.10;99.90
1766;DHT22;880;52.452;8.656;2023-02-28T07:45:34;0.10;99.90
1766;DHT22;880;52.452;8.656;2023-02-28T07:48:01;0.20;99.90
1766;DHT22;880;52.452;8.656;2023-02-28T07:50:29;0.20;99.90
1766;DHT22;880;52.452;8.656;2023-02-28T07:52:58;0.30;99.90
1766;DHT22;880;52.452;8.656;2023-02-28T07:55:25;0.40;99.90
1766;DHT22;880;52.452;8.656;2023-02-28T07:57:52;0.60;99.90
1766;DHT22;880;52.452;8.656;2023-02-28T08:00:20;0.70;99.90
1766;DHT22;880;52.452;8.656;2023-02-28T08:02:48;0.90;99.90
1766;DHT22;880;52.452;8.656;2023-02-28T08:05:15;1.10;99.90
1766;DHT22;880;52.452;8.656;2023-02-28T08:07:42;1.20;99.90
1766;DHT22;880;52.452;8.656;2023-02-28T08:10:09;1.40;99.90
1766;DHT22;880;52.452;8.656;2023-02-28T08:12:36;1.70;99.90
1766;DHT22;880;52.452;8.656;2023-02-28T08:15:04;1.80;99.90
1766;DHT22;880;52.452;8.656;2023-02-28T08:17:31;2.10;99.90
1766;DHT22;880;52.452;8.656;2023-02-28T08:20:00;2.30;99.90
1766;DHT22;880;52.452;8.656;2023-02-28T08:22:27;2.50;99.90
1766;DHT22;880;52.452;8.656;2023-02-28T08:24:55;2.70;99.90
1766;DHT22;880;52.452;8.656;2023-02-28T08:27:22;2.90;99.90
1766;DHT22;880;52.452;8.656;2023-02-28T08:29:49;3.20;99.90
1766;DHT22;880;52.452;8.656;2023-02-28T08:32:16;3.40;99.90
1766;DHT22;880;52.452;8.656;2023-02-28T08:34:55;3.60;99.90
1766;DHT22;880;52.452;8.656;2023-02-28T08:37:22;3.70;99.90
1766;DHT22;880;52.452;8.656;2023-02-28T08:39:50;4.00;99.90
1766;DHT22;880;52.452;8.656;2023-02-28T08:42:21;4.20;99.90
1766;DHT22;880;52.452;8.656;2023-02-28T08:44:48;4.40;99.90
1766;DHT22;880;52.452;8.656;2023-02-28T08:47:15;4.60;99.90
1766;DHT22;880;52.452;8.656;2023-02-28T08:49:42;4.80;99.90
1766;DHT22;880;52.452;8.656;2023-02-28T08:52:09;4.90;99.90
1766;DHT22;880;52.452;8.656;2023-02-28T08:54:36;5.00;99.90
1766;DHT22;880;52.452;8.656;2023-02-28T08:57:03;5.00;99.90
1766;DHT22;880;52.452;8.656;2023-02-28T08:59:30;5.10;99.90
1766;DHT22;880;52.452;8.656;2023-02-28T09:01:57;5.30;99.90
1766;DHT22;880;52.452;8.656;2023-02-28T09:04:24;5.40;99.90
1766;DHT22;880;52.452;8.656;2023-02-28T09:06:51;5.50;99.90
1766;DHT22;880;52.452;8.656;2023-02-28T09:09:18;5.60;99.90
1766;DHT22;880;52.452;8.656;2023-02-28T09:11:45;5.60;99.90
1766;DHT22;880;52.452;8.656;2023-02-28T09:14:12;5.70;99.90
1766;DHT22;880;52.452;8.656;2023-02-28T09:16:39;5.80;99.90
1766;DHT22;880;52.452;8.656;2023-02-28T09:19:06;5.80;99.90
1766;DHT22;880;52.452;8.656;2023-02-28T09:21:37;6.00;99.90
1766;DHT22;880;52.452;8.656;2023-02-28T09:24:04;6.10;99.90
1766;DHT22;880;52.452;8.656;2023-02-28T09:26:32;6.20;99.90
1766;DHT22;880;52.452;8.656;2023-02-28T09:29:13;6.20;99.90
1766;DHT22;880;52.452;8.656;2023-02-28T09:31:41;6.50;99.90
1766;DHT22;880;52.452;8.656;2023-02-28T09:34:08;6.60;99.90
1766;DHT22;880;52.452;8.656;2023-02-28T09:36:35;6.70;99.90
1766;DHT22;880;52.452;8.656;2023-02-28T09:39:12;6.90;99.90
1766;DHT22;880;52.452;8.656;2023-02-28T09:41:47;7.00;99.90
1766;DHT22;880;52.452;8.656;2023-02-28T09:44:30;7.20;99.90
1766;DHT22;880;52.452;8.656;2023-02-28T09:47:05;7.40;99.90
1766;DHT22;880;52.452;8.656;2023-02-28T09:49:41;7.50;99.90
1766;DHT22;880;52.452;8.656;2023-02-28T09:52:17;7.60;99.90
1766;DHT22;880;52.452;8.656;2023-02-28T09:54:46;7.70;99.90
1766;DHT22;880;52.452;8.656;2023-02-28T10:00:15;7.80;99.90
1766;DHT22;880;52.452;8.656;2023-02-28T10:08:34;8.20;99.90
1766;DHT22;880;52.452;8.656;2023-02-28T10:11:09;8.40;99.90
1766;DHT22;880;52.452;8.656;2023-02-28T10:16:45;8.70;99.90
1766;DHT22;880;52.452;8.656;2023-02-28T10:19:42;8.90;99.90
1766;DHT22;880;52.452;8.656;2023-02-28T10:22:20;9.10;99.90
1766;DHT22;880;52.452;8.656;2023-02-28T10:24:52;9.10;99.90
1766;DHT22;880;52.452;8.656;2023-02-28T10:27:25;9.10;99.90
1766;DHT22;880;52.452;8.656;2023-02-28T10:30:00;9.10;99.90
1766;DHT22;880;52.452;8.656;2023-02-28T10:32:34;8.70;99.90
1766;DHT22;880;52.452;8.656;2023-02-28T10:35:16;8.30;99.90
1766;DHT22;880;52.452;8.656;2023-02-28T10:37:54;8.20;99.90
1766;DHT22;880;52.452;8.656;2023-02-28T10:43:03;8.30;99.90
1766;DHT22;880;52.452;8.656;2023-02-28T10:45:35;8.40;99.90
1766;DHT22;880;52.452;8.656;2023-02-28T10:48:26;8.70;99.90
1766;DHT22;880;52.452;8.656;2023-02-28T10:50:54;9.00;99.70
1766;DHT22;880;52.452;8.656;2023-02-28T11:03:57;8.70;97.40
1766;DHT22;880;52.452;8.656;2023-02-28T11:06:33;8.70;98.00
1766;DHT22;880;52.452;8.656;2023-02-28T11:09:15;8.70;98.30
1766;DHT22;880;52.452;8.656;2023-02-28T11:11:47;8.90;98.80
1766;DHT22;880;52.452;8.656;2023-02-28T11:14:22;8.80;97.90
1766;DHT22;880;52.452;8.656;2023-02-28T11:16:53;8.60;95.60
1766;DHT22;880;52.452;8.656;2023-02-28T11:19:33;8.70;97.30
1766;DHT22;880;52.452;8.656;2023-02-28T11:22:05;8.70;96.60
1766;DHT22;880;52.452;8.656;2023-02-28T11:24:41;8.80;96.20
1766;DHT22;880;52.452;8.656;2023-02-28T11:29:59;8.70;97.30
1766;DHT22;880;52.452;8.656;2023-02-28T11:32:28;8.90;96.60
1766;DHT22;880;52.452;8.656;2023-02-28T11:35:15;9.20;95.10
1766;DHT22;880;52.452;8.656;2023-02-28T11:37:46;9.30;94.90
1766;DHT22;880;52.452;8.656;2023-02-28T11:40:16;9.40;94.50
1766;DHT22;880;52.452;8.656;2023-02-28T11:43:18;9.50;94.30
1766;DHT22;880;52.452;8.656;2023-02-28T11:52:04;9.40;92.50
1766;DHT22;880;52.452;8.656;2023-02-28T12:09:28;9.90;91.70
1766;DHT22;880;52.452;8.656;2023-02-28T12:12:37;9.80;91.60
1766;DHT22;880;52.452;8.656;2023-02-28T12:16:14;10.10;91.20
1766;DHT22;880;52.452;8.656;2023-02-28T12:19:11;10.20;88.90
1766;DHT22;880;52.452;8.656;2023-02-28T12:27:37;10.70;88.90
1766;DHT22;880;52.452;8.656;2023-02-28T12:30:21;11.00;89.30
1766;DHT22;880;52.452;8.656;2023-02-28T12:32:58;11.30;88.70
1766;DHT22;880;52.452;8.656;2023-02-28T12:35:51;11.30;83.50
1766;DHT22;880;52.452;8.656;2023-02-28T12:38:28;11.10;80.10
1766;DHT22;880;52.452;8.656;2023-02-28T12:44:27;10.90;84.60
1766;DHT22;880;52.452;8.656;2023-02-28T12:47:04;10.70;86.30
1766;DHT22;880;52.452;8.656;2023-02-28T12:49:36;10.40;87.70
1766;DHT22;880;52.452;8.656;2023-02-28T12:52:08;10.40;88.70
1766;DHT22;880;52.452;8.656;2023-02-28T12:54:55;10.70;88.00
1766;DHT22;880;52.452;8.656;2023-02-28T12:57:48;10.90;85.50
1766;DHT22;880;52.452;8.656;2023-02-28T13:00:32;11.20;86.20
1766;DHT22;880;52.452;8.656;2023-02-28T13:03:18;11.50;82.10
1766;DHT22;880;52.452;8.656;2023-02-28T13:09:12;10.60;84.10
1766;DHT22;880;52.452;8.656;2023-02-28T13:11:51;10.20;88.60
1766;DHT22;880;52.452;8.656;2023-02-28T13:19:37;10.70;86.50
1766;DHT22;880;52.452;8.656;2023-02-28T13:22:05;10.70;85.30
1766;DHT22;880;52.452;8.656;2023-02-28T13:24:50;10.70;85.70
1766;DHT22;880;52.452;8.656;2023-02-28T13:27:31;10.90;85.20
1766;DHT22;880;52.452;8.656;2023-02-28T13:33:36;11.10;83.40
1766;DHT22;880;52.452;8.656;2023-02-28T13:36:22;11.00;84.10
1766;DHT22;880;52.452;8.656;2023-02-28T13:38:56;10.80;83.60
1766;DHT22;880;52.452;8.656;2023-02-28T13:41:42;10.60;86.00
1766;DHT22;880;52.452;8.656;2023-02-28T13:44:18;10.70;84.00
1766;DHT22;880;52.452;8.656;2023-02-28T13:52:36;10.40;83.00
1766;DHT22;880;52.452;8.656;2023-02-28T14:00:49;10.10;84.00
1766;DHT22;880;52.452;8.656;2023-02-28T14:06:55;10.20;81.50
1766;DHT22;880;52.452;8.656;2023-02-28T14:18:30;10.80;86.10
1766;DHT22;880;52.452;8.656;2023-02-28T14:21:43;10.70;86.50
1766;DHT22;880;52.452;8.656;2023-02-28T14:35:52;11.10;79.00
1766;DHT22;880;52.452;8.656;2023-02-28T14:38:52;10.70;81.30
1766;DHT22;880;52.452;8.656;2023-02-28T14:43:56;10.40;82.20
1766;DHT22;880;52.452;8.656;2023-02-28T14:46:35;10.50;82.30
1766;DHT22;880;52.452;8.656;2023-02-28T14:49:05;10.40;81.30
1766;DHT22;880;52.452;8.656;2023-02-28T14:51:34;10.50;83.10
1766;DHT22;880;52.452;8.656;2023-02-28T14:54:03;10.50;84.20
1766;DHT22;880;52.452;8.656;2023-02-28T14:56:37;10.40;81.70
1766;DHT22;880;52.452;8.656;2023-02-28T14:59:25;10.40;84.10
1766;DHT22;880;52.452;8.656;2023-02-28T15:02:21;10.50;81.40
1766;DHT22;880;52.452;8.656;2023-02-28T15:04:58;10.30;82.60
1766;DHT22;880;52.452;8.656;2023-02-28T15:07:27;10.20;81.80
1766;DHT22;880;52.452;8.656;2023-02-28T15:10:27;9.90;83.60
1766;DHT22;880;52.452;8.656;2023-02-28T15:12:56;9.80;86.00
1766;DHT22;880;52.452;8.656;2023-02-28T15:15:33;9.80;87.10
1766;DHT22;880;52.452;8.656;2023-02-28T15:18:24;9.90;87.30
1766;DHT22;880;52.452;8.656;2023-02-28T15:21:03;10.00;84.00
1766;DHT22;880;52.452;8.656;2023-02-28T15:23:35;10.30;83.60
1766;DHT22;880;52.452;8.656;2023-02-28T15:26:04;10.30;82.40
1766;DHT22;880;52.452;8.656;2023-02-28T15:28:31;10.30;82.70
1766;DHT22;880;52.452;8.656;2023-02-28T15:31:03;9.90;84.10
1766;DHT22;880;52.452;8.656;2023-02-28T15:33:57;9.60;84.80
1766;DHT22;880;52.452;8.656;2023-02-28T15:36:33;9.40;87.40
1766;DHT22;880;52.452;8.656;2023-02-28T15:39:20;9.30;86.30
1766;DHT22;880;52.452;8.656;2023-02-28T15:41:49;9.30;87.20
1766;DHT22;880;52.452;8.656;2023-02-28T15:44:24;9.30;87.60
1766;DHT22;880;52.452;8.656;2023-02-28T15:47:14;9.30;89.80
1766;DHT22;880;52.452;8.656;2023-02-28T15:49:52;9.30;90.10
1766;DHT22;880;52.452;8.656;2023-02-28T15:52:40;9.40;88.50
1766;DHT22;880;52.452;8.656;2023-02-28T15:55:20;9.40;88.70
1766;DHT22;880;52.452;8.656;2023-02-28T15:57:53;9.50;89.60
1766;DHT22;880;52.452;8.656;2023-02-28T16:00:24;9.60;87.80
1766;DHT22;880;52.452;8.656;2023-02-28T16:02:52;9.60;88.80
1766;DHT22;880;52.452;8.656;2023-02-28T16:08:11;9.40;90.10
1766;DHT22;880;52.452;8.656;2023-02-28T16:10:41;9.30;90.20
1766;DHT22;880;52.452;8.656;2023-02-28T16:13:11;9.20;90.30
1766;DHT22;880;52.452;8.656;2023-02-28T16:15:42;9.20;90.70
1766;DHT22;880;52.452;8.656;2023-02-28T16:18:11;9.30;90.80
1766;DHT22;880;52.452;8.656;2023-02-28T16:20:38;9.30;90.80
1766;DHT22;880;52.452;8.656;2023-02-28T16:23:05;9.30;90.90
1766;DHT22;880;52.452;8.656;2023-02-28T16:25:38;9.30;90.90
1766;DHT22;880;52.452;8.656;2023-02-28T16:28:20;9.40;91.10
1766;DHT22;880;52.452;8.656;2023-02-28T16:30:51;9.30;91.00
1766;DHT22;880;52.452;8.656;2023-02-28T16:33:19;9.30;90.50
1766;DHT22;880;52.452;8.656;2023-02-28T16:35:46;9.30;90.90
1766;DHT22;880;52.452;8.656;2023-02-28T16:38:13;9.30;91.00
1766;DHT22;880;52.452;8.656;2023-02-28T16:40:40;9.20;90.80
1766;DHT22;880;52.452;8.656;2023-02-28T16:43:12;9.10;91.30
1766;DHT22;880;52.452;8.656;2023-02-28T16:45:42;9.00;90.80
1766;DHT22;880;52.452;8.656;2023-02-28T16:48:15;8.80;91.00
1766;DHT22;880;52.452;8.656;2023-02-28T16:50:42;8.70;91.40
1766;DHT22;880;52.452;8.656;2023-02-28T16:53:12;8.60;91.60
1766;DHT22;880;52.452;8.656;2023-02-28T16:55:40;8.40;91.80
1766;DHT22;880;52.452;8.656;2023-02-28T16:58:15;8.30;92.30
1766;DHT22;880;52.452;8.656;2023-02-28T17:00:43;8.20;93.00
1766;DHT22;880;52.452;8.656;2023-02-28T17:03:21;8.10;92.80
1766;DHT22;880;52.452;8.656;2023-02-28T17:05:59;8.00;92.90
1766;DHT22;880;52.452;8.656;2023-02-28T17:08:26;8.00;93.20
1766;DHT22;880;52.452;8.656;2023-02-28T17:10:55;7.90;93.70
1766;DHT22;880;52.452;8.656;2023-02-28T17:13:22;7.80;93.80
1766;DHT22;880;52.452;8.656;2023-02-28T17:15:49;7.70;93.70
1766;DHT22;880;52.452;8.656;2023-02-28T17:18:18;7.60;94.60
1766;DHT22;880;52.452;8.656;2023-02-28T17:20:46;7.60;95.20
1766;DHT22;880;52.452;8.656;2023-02-28T17:23:13;7.50;95.30
1766;DHT22;880;52.452;8.656;2023-02-28T17:25:40;7.50;96.20
1766;DHT22;880;52.452;8.656;2023-02-28T17:28:08;7.40;96.70
1766;DHT22;880;52.452;8.656;2023-02-28T17:30:35;7.40;97.20
1766;DHT22;880;52.452;8.656;2023-02-28T17:33:02;7.30;96.60
1766;DHT22;880;52.452;8.656;2023-02-28T17:35:29;7.30;96.50
1766;DHT22;880;52.452;8.656;2023-02-28T17:37:57;7.20;97.10
1766;DHT22;880;52.452;8.656;2023-02-28T17:40:24;7.20;97.90
1766;DHT22;880;52.452;8.656;2023-02-28T17:42:52;7.20;98.50
1766;DHT22;880;52.452;8.656;2023-02-28T17:45:19;7.10;98.60
1766;DHT22;880;52.452;8.656;2023-02-28T17:47:48;7.10;98.50
1766;DHT22;880;52.452;8.656;2023-02-28T17:50:19;7.00;98.90
1766;DHT22;880;52.452;8.656;2023-02-28T17:52:48;6.90;99.00
1766;DHT22;880;52.452;8.656;2023-02-28T17:55:16;6.90;99.10
1766;DHT22;880;52.452;8.656;2023-02-28T17:57:46;6.80;99.60
1766;DHT22;880;52.452;8.656;2023-02-28T18:00:15;6.70;99.70
1766;DHT22;880;52.452;8.656;2023-02-28T18:02:44;6.70;99.90
1766;DHT22;880;52.452;8.656;2023-02-28T18:05:11;6.60;99.90
1766;DHT22;880;52.452;8.656;2023-02-28T18:07:38;6.50;99.90
1766;DHT22;880;52.452;8.656;2023-02-28T18:10:11;6.50;99.90
1766;DHT22;880;52.452;8.656;2023-02-28T18:12:41;6.40;99.90
1766;DHT22;880;52.452;8.656;2023-02-28T18:15:09;6.30;99.90
1766;DHT22;880;52.452;8.656;2023-02-28T18:17:36;6.20;99.90
1766;DHT22;880;52.452;8.656;2023-02-28T18:20:03;6.20;99.90
1766;DHT22;880;52.452;8.656;2023-02-28T18:22:31;6.10;99.90
1766;DHT22;880;52.452;8.656;2023-02-28T18:24:58;6.10;99.90
1766;DHT22;880;52.452;8.656;2023-02-28T18:27:25;6.00;99.90
1766;DHT22;880;52.452;8.656;2023-02-28T18:29:52;5.90;99.90
1766;DHT22;880;52.452;8.656;2023-02-28T18:32:20;5.90;99.90
1766;DHT22;880;52.452;8.656;2023-02-28T18:34:47;5.80;99.90
1766;DHT22;880;52.452;8.656;2023-02-28T18:37:14;5.70;99.90
1766;DHT22;880;52.452;8.656;2023-02-28T18:39:44;5.60;99.90
1766;DHT22;880;52.452;8.656;2023-02-28T18:42:11;5.60;99.90
1766;DHT22;880;52.452;8.656;2023-02-28T18:44:38;5.50;99.90
1766;DHT22;880;52.452;8.656;2023-02-28T18:47:05;5.50;99.90
1766;DHT22;880;52.452;8.656;2023-02-28T18:49:32;5.40;99.90
1766;DHT22;880;52.452;8.656;2023-02-28T18:52:01;5.40;99.90
1766;DHT22;880;52.452;8.656;2023-02-28T18:54:28;5.30;99.90
1766;DHT22;880;52.452;8.656;2023-02-28T18:56:55;5.30;99.90
1766;DHT22;880;52.452;8.656;2023-02-28T18:59:23;5.40;99.90
1766;DHT22;880;52.452;8.656;2023-02-28T19:01:50;5.60;99.90
1766;DHT22;880;52.452;8.656;2023-02-28T19:04:16;5.50;99.90
1766;DHT22;880;52.452;8.656;2023-02-28T19:06:43;5.40;99.90
1766;DHT22;880;52.452;8.656;2023-02-28T19:09:11;5.30;99.90
1766;DHT22;880;52.452;8.656;2023-02-28T19:11:38;5.20;99.90
1766;DHT22;880;52.452;8.656;2023-02-28T19:14:05;5.10;99.90
1766;DHT22;880;52.452;8.656;2023-02-28T19:16:32;5.00;99.90
1766;DHT22;880;52.452;8.656;2023-02-28T19:19:00;4.90;99.90